Archival Weather

Granbury Rgnl

Granbury, Texas (KGDJ)

Report from: Monday, January 29, 2024 10:35 AM UTC
Current time: Tuesday, June 18, 2024 1:47 PM UTC

Current weather – Weather history – Daily summaries
Weather forecast

Temperature2.5°C (36.5°F)
Dew point1.1°C (34.0°F)
Winds Calm
Visibility10 mi. (16.1 km)
Clouds Sky clear
Altimeter30.35 in.Hg (1028 mB)
Relative humidity90 %
Density altitude-1,913 ft. (-583 m)
Remarks Fully automated report
Automated weather observing station with precipitation discriminator
Flight conditions Visual Meteorological Conditions
Raw dataKGDJ 291035Z AUTO 00000KT 10SM CLR 03/01 A3035 RMK AO2 T00250011
An error has occurred. This application may no longer respond until reloaded. Reload 🗙